メインページ
METAR-TAF:

METAR-TAF

空港 :

リーブルヴィル国際空港

リーブルヴィル, ガボン

緯度: 00-27N, 経度: 009-25E, 海抜: 12m

現時点の気象観測

当レポートは16分前の21:00(UTC)に作成
南/南西の風 7kt、から西/南西の間で変化する
気温 25°C
湿度 83%
気圧 1016 hPa
視程10km以上
高度1600ftの雲は散在している

METAR: FOOL 192100Z 20007KT 190V250 9999 SCT016 25/22 Q1016 NOSIG

時間: 22:16 (21:16 UTC)

予報

当レポートは4時間16分前の17:00(UTC)に作成
予報は19日の 18時(UTC)から 20日の 24時(UTC)まで有効
南西の風 7kt
視程10km以上
高度1500ftの雲はほとんどない
高度4000ftの千切れ雲あり
確率 30%
20日の 04時(UTC)から 20日の 08時(UTC)まで
視程: 4000m
高度600ftの千切れ雲あり
高度3000ftの曇り
霧雨, 雨

TAF: FOOL 191700Z 1918/2024 23007KT 9999 FEW015 BKN040 PROB30 2004/2008 4000 DZRA BKN006 OVC030

4,000以上の空港の気象観測と天気予報(METAR報とTAF報)

利用可能な観測所は地図上に黄色い丸と赤い丸で示す。

丸の上にカーソルを重ねると観測所名を参照できる。

次にクリックすると気象観測と天気予報を参照できる。

マップの切り替え:黒色「×」印の緑ボタンをクリックして拡大、「-」印の緑ボタンをクリックして縮小、緑色の三角印をクリックして隣りの地図に切り替え


METAR-TAF: